Airfield :
LOGIN :

Register | Disclaimer

   EN    FR    IT 

 










Legend :    VFR   Marginal VFR   IFR   Intensive IFR   Very Intensive IFR
Visi :
Ceiling :
>= 8 km
>= 3000ft
5 to 8 km
1000 to 3000 ft
1500m to 5 km
500 to 1000 ft
800 to 1500m
200 to 500 ft
< 800m
< 200 ft
Symbols :   Thunderstorms  Fog  Heavy snow  Heavy precipitations  Wind > 20 kt
SIGMETs :     Misc.  Thunderstorms  Icing  Turbulence  Mountain Waves  Volcanic Ashes







- Airport Elevation : 90 ft
- IATA code : NTE
- Download approach charts


LFRS - Nantes

CURRENT METAR :
  • 190500Z AUTO VRB02KT 0800 0650 R03/0900D R21/0750D FG VV/// 05/05 Q1021 TEMPO 0400 FG

EXPIRED METARs :
  • 190430Z AUTO VRB01KT 2400 BR OVC002 05/05 Q1021 TEMPO 0400 FG VV///
  • 190400Z AUTO 00000KT 0800 0700 R03/1000N R21/P2000 FG OVC005 05/05 Q1021 TEMPO 0400 FG VV///
  • 190330Z AUTO VRB01KT 0400 0350 R03/0500D R21/0600U FG VV/// 05/04 Q1021 NOSIG
  • 190300Z AUTO 01002KT 0450 0400 R03/0600U R21/0500N FG VV/// 05/05 Q1021 NOSIG
  • 190230Z AUTO 00000KT 0350 R03/0375N R21/0400N FG VV/// 05/05 Q1021 NOSIG

TAF TAF LFRS
Valid from the 19 at 00:00 until the 20 at 06:00 UTC


182300Z 1900/2006 VRB03KT 3000 BR SCT002 BKN020
TEMPO 1900/1909 0400 FG VV///
BECMG 1909/1911 4500 BR BKN006
BECMG 1911/1913 9999 NSW SCT015
BECMG 1922/1924 3000 BR
PROB40
TEMPO 2000/2006 0500 FG VV///
ATIS : +33 2 40 05 12 74
No reported NOTAMs for that airfield.
2 SIGMETs reported for the Brest FIR (LFRR) :
 
Severe turbulence
LFRR SIGMET 2 VALID 190410/190800 LFPW
LFRR BREST FIR/UIR SEV TURB FCST WI N4630 W00130 - N4730 W00145 - N4830 W00015 - N4730 W00015 - N4630 W00130 FL180/280 MOV SE 10KT NC=
Severe turbulence
LFRR SIGMET 1 VALID 190400/190800 LFPW
LFRR BREST FIR/UIR SEV TURB FCST WI N4345 W00230 - N4415 W00500 - N4730 W00145 - N4630 W00145 - N4345 W00230 FL180/300 MOV SE 5KT NC=



MET'MAP, your aeronautical weather chart ! - Copyright ORBIFLY December 2007 - Disclaimer

ORBIFLY MET'MAP TEAM :

Programming & Development : Alexandra Zaïnal
Concept & Development : Baudouin d'Aumeries
Co-Development & Prog : Marc-Olivier Méhu
Technical & hardware support : Manuel Goepfert

Contact : metmap@orbifly.com




SOURCES & CREDITS :

   NOAA